Terminal Aerodrome Forecast
Issued by NWS

Home | Current Version | Previous Version | Text Only | Print | Product List | Glossary On
Versions: 1 2 3 4 5 6 7 8 9 10 11 12 13 14 15 16 17 18 19 20 21 22 23 24 25 26 27 28 29 30 31 32 33 34 35 36 37
000
FTPQ31 PGUM 240523
TAFGUM
TAF

TAF
PGRO 240523Z 2406/2506 05012KT P6SM VCSH FEW020 SCT050 SCT120
     FM240900 06007KT P6SM VCSH FEW018 SCT040 BKN120=

USA.gov is the U.S. government's official web portal to all federal, state and local government web resources and services.